Time;durP1;ratioP1;P1;durP2;ratioP2;P2;SDS_P1;SDS_P2;PMS_P1;PMS_P2;Temp;Humidity;BMP_temperature;BMP_pressure;BME280_temperature;BME280_humidity;BME280_pressure;Samples;Min_cycle;Max_cycle;Signal;HPM_P1;HPM_P2
2023/05/22 00:01:44;;;;;;;;;;;;;;;17.78;58.05;97658.63;5091628;28;19986;-54
2023/05/22 00:04:12;;;;;;;;;;;;;;;17.92;57.87;97657.28;5096430;28;19943;-56
2023/05/22 00:06:43;;;;;;;;;;;;;;;17.84;57.64;97648.13;5089608;28;19970;-54
2023/05/22 00:09:11;;;;;;;;;;;;;;;17.86;57.82;97650.50;5092365;28;19993;-54
2023/05/22 00:11:39;;;;;;;;;;;;;;;17.78;58.23;97650.38;5090261;28;19931;-54
2023/05/22 00:14:07;;;;;;;;;;;;;;;17.74;58.31;97646.00;5092651;28;20425;-58
2023/05/22 00:16:34;;;;;;;;;;;;;;;17.76;58.13;97638.97;5096464;28;19930;-54
2023/05/22 00:19:02;;;;;;;;;;;;;;;17.70;58.13;97634.91;5102494;28;19934;-61
2023/05/22 00:21:33;;;;;;;;;;;;;;;17.76;57.85;97638.16;5091462;28;19966;-54
2023/05/22 00:24:02;;;;;;;;;;;;;;;17.75;57.92;97631.09;5081984;28;20004;-58
2023/05/22 00:26:30;;;;;;;;;;;;;;;17.73;58.27;97634.19;5079124;28;19994;-54
2023/05/22 00:28:58;;;;;;;;;;;;;;;17.87;57.26;97621.88;5091134;28;19966;-54
2023/05/22 00:31:26;;;;;;;;;;;;;;;17.73;57.69;97628.69;5106346;28;19935;-54
2023/05/22 00:33:54;;;;;;;;;;;;;;;17.65;58.14;97629.69;5087023;28;19984;-54
2023/05/22 00:36:23;;;;;;;;;;;;;;;17.60;58.03;97624.50;5086346;28;20387;-58
2023/05/22 00:38:51;;;;;;;;;;;;;;;17.72;57.51;97626.28;5105811;28;19980;-56
2023/05/22 00:41:20;;;;;;;;;;;;;;;17.75;57.70;97625.59;5101889;28;20467;-55
2023/05/22 00:43:49;;;;;;;;;;;;;;;17.59;58.10;97628.41;5091981;28;19938;-54
2023/05/22 00:46:20;;;;;;;;;;;;;;;17.52;58.41;97622.78;5099870;28;19935;-54
2023/05/22 00:48:48;;;;;;;;;;;;;;;17.49;58.22;97629.81;5087594;28;20372;-54
2023/05/22 00:51:16;;;;;;;;;;;;;;;17.61;58.02;97625.28;5079149;28;19938;-54
2023/05/22 00:53:44;;;;;;;;;;;;;;;17.48;58.36;97627.44;5124833;27;20299;-54
2023/05/22 00:56:12;;;;;;;;;;;;;;;17.41;58.44;97622.56;5122545;27;20264;-54
2023/05/22 00:58:41;;;;;;;;;;;;;;;17.35;59.00;97623.22;5086092;28;20013;-54
2023/05/22 01:01:11;;;;;;;;;;;;;;;17.29;58.92;97626.25;5097114;28;19945;-55
2023/05/22 01:03:43;;;;;;;;;;;;;;;17.25;59.03;97624.59;5096914;28;19962;-55
2023/05/22 01:06:11;;;;;;;;;;;;;;;17.24;59.29;97628.50;5091125;28;19939;-55
2023/05/22 01:08:40;;;;;;;;;;;;;;;17.23;59.07;97624.19;5089744;28;19934;-54
2023/05/22 01:11:10;;;;;;;;;;;;;;;17.23;59.10;97624.97;5106951;28;19936;-57
2023/05/22 01:13:41;;;;;;;;;;;;;;;17.17;59.22;97637.41;5090261;28;20341;-56
2023/05/22 01:16:10;;;;;;;;;;;;;;;17.09;59.98;97637.59;5122567;28;20284;-53
2023/05/22 01:18:41;;;;;;;;;;;;;;;17.04;59.77;97627.72;5091735;28;19942;-54
2023/05/22 01:21:10;;;;;;;;;;;;;;;17.01;60.02;97628.44;5091096;28;19980;-54
2023/05/22 01:23:56;;;;;;;;;;;;;;;16.95;60.02;97638.91;5091748;28;19950;-54
2023/05/22 01:26:45;;;;;;;;;;;;;;;17.03;59.55;97634.34;5087649;28;19938;-53
2023/05/22 01:29:26;;;;;;;;;;;;;;;16.96;59.80;97640.50;5068744;28;19934;-54
2023/05/22 01:31:56;;;;;;;;;;;;;;;17.02;59.41;97627.28;5101628;28;19934;-54
2023/05/22 01:34:23;;;;;;;;;;;;;;;17.00;59.52;97638.63;5100342;28;19962;-53
2023/05/22 01:36:52;;;;;;;;;;;;;;;16.98;59.56;97634.63;5103003;28;19984;-53
2023/05/22 01:39:19;;;;;;;;;;;;;;;16.93;59.68;97641.19;5095312;28;20269;-55
2023/05/22 01:41:47;;;;;;;;;;;;;;;16.95;59.49;97635.38;5094700;28;20314;-54
2023/05/22 01:44:15;;;;;;;;;;;;;;;17.02;59.00;97638.25;5106774;28;19957;-54
2023/05/22 01:46:43;;;;;;;;;;;;;;;16.94;59.34;97648.31;5094337;28;19930;-53
2023/05/22 01:49:12;;;;;;;;;;;;;;;16.91;59.31;97643.53;5106360;28;19932;-53
2023/05/22 01:51:43;;;;;;;;;;;;;;;16.86;59.34;97635.56;5112531;27;19989;-55
2023/05/22 01:54:13;;;;;;;;;;;;;;;16.99;59.25;97642.53;5094703;28;20562;-54
2023/05/22 01:56:42;;;;;;;;;;;;;;;16.86;59.44;97641.06;5095536;28;20029;-54
2023/05/22 01:59:14;;;;;;;;;;;;;;;16.84;59.52;97642.59;5091947;28;19935;-54
2023/05/22 02:01:42;;;;;;;;;;;;;;;16.91;59.29;97638.03;5086010;28;19985;-53
2023/05/22 02:04:11;;;;;;;;;;;;;;;16.88;59.05;97637.94;5104375;28;19964;-53
2023/05/22 02:06:41;;;;;;;;;;;;;;;16.85;58.97;97639.47;5136866;27;19938;-53
2023/05/22 02:09:08;;;;;;;;;;;;;;;16.77;59.30;97633.03;5091667;28;19935;-57
2023/05/22 02:11:38;;;;;;;;;;;;;;;16.81;59.08;97632.31;5103824;28;19934;-53
2023/05/22 02:14:07;;;;;;;;;;;;;;;16.74;59.48;97641.97;5089338;28;20399;-53
2023/05/22 02:16:36;;;;;;;;;;;;;;;16.77;59.29;97637.72;5097854;28;19930;-56
2023/05/22 02:19:06;;;;;;;;;;;;;;;16.73;59.31;97637.66;5106085;28;20399;-54
2023/05/22 02:21:34;;;;;;;;;;;;;;;16.81;59.09;97637.81;5107975;28;20371;-54
2023/05/22 02:24:04;;;;;;;;;;;;;;;16.77;58.98;97635.75;5093645;28;20011;-54
2023/05/22 02:26:32;;;;;;;;;;;;;;;16.81;58.97;97635.06;5094516;28;19938;-54
2023/05/22 02:29:00;;;;;;;;;;;;;;;16.71;59.35;97631.72;5110223;28;20033;-54
2023/05/22 02:31:28;;;;;;;;;;;;;;;16.70;59.50;97630.09;5104716;28;19939;-53
2023/05/22 02:33:56;;;;;;;;;;;;;;;16.66;59.60;97631.16;5107664;28;20453;-54
2023/05/22 02:36:25;;;;;;;;;;;;;;;16.61;59.65;97626.75;5088266;28;19934;-53
2023/05/22 02:38:54;;;;;;;;;;;;;;;16.60;59.55;97625.16;5091796;28;19961;-53
2023/05/22 02:41:24;;;;;;;;;;;;;;;16.55;59.48;97625.44;5089334;28;19968;-53
2023/05/22 02:43:52;;;;;;;;;;;;;;;16.56;59.64;97621.53;5090990;28;20444;-53
2023/05/22 02:46:20;;;;;;;;;;;;;;;16.52;59.51;97626.19;5084127;28;19959;-54
2023/05/22 02:48:48;;;;;;;;;;;;;;;16.57;59.00;97628.63;5091989;28;19966;-54
2023/05/22 02:51:17;;;;;;;;;;;;;;;16.55;59.18;97630.94;5094122;28;19978;-54
2023/05/22 02:53:45;;;;;;;;;;;;;;;16.53;59.17;97630.50;5086474;28;20482;-56
2023/05/22 02:56:13;;;;;;;;;;;;;;;16.53;59.02;97627.75;5104009;28;19977;-55
2023/05/22 02:58:42;;;;;;;;;;;;;;;16.49;59.07;97622.19;5111689;28;20368;-53
2023/05/22 03:01:10;;;;;;;;;;;;;;;16.47;59.26;97624.50;5107502;28;19983;-53
2023/05/22 03:03:38;;;;;;;;;;;;;;;16.54;59.00;97623.84;5108970;28;19935;-53
2023/05/22 03:06:07;;;;;;;;;;;;;;;16.56;59.07;97632.50;5086405;28;19988;-54
2023/05/22 03:08:40;;;;;;;;;;;;;;;16.56;58.72;97638.00;5084733;28;19935;-53
2023/05/22 03:11:08;;;;;;;;;;;;;;;16.49;59.10;97626.88;5090588;28;20406;-58
2023/05/22 03:13:36;;;;;;;;;;;;;;;16.43;59.36;97633.78;5094278;28;19951;-53
2023/05/22 03:16:05;;;;;;;;;;;;;;;16.38;59.61;97634.06;5092573;28;19982;-60
2023/05/22 03:18:36;;;;;;;;;;;;;;;16.38;59.68;97632.13;5111771;27;20089;-54
2023/05/22 03:21:04;;;;;;;;;;;;;;;16.34;60.02;97633.97;5102617;28;19970;-53
2023/05/22 03:23:31;;;;;;;;;;;;;;;16.32;60.15;97636.28;5072309;28;20045;-54
2023/05/22 03:25:59;;;;;;;;;;;;;;;16.30;60.05;97630.38;5108628;28;19935;-54
2023/05/22 03:28:31;;;;;;;;;;;;;;;16.30;59.99;97640.50;5091870;28;19977;-53
2023/05/22 03:30:59;;;;;;;;;;;;;;;16.28;60.30;97637.34;5092575;28;19937;-56
2023/05/22 03:33:35;;;;;;;;;;;;;;;16.29;59.96;97631.50;5087897;28;20407;-54
2023/05/22 03:36:03;;;;;;;;;;;;;;;16.29;60.16;97630.69;5090166;28;19988;-54
2023/05/22 03:38:31;;;;;;;;;;;;;;;16.24;60.38;97632.59;5085818;28;19981;-58
2023/05/22 03:40:58;;;;;;;;;;;;;;;16.20;60.37;97628.97;5087978;28;19934;-57
2023/05/22 03:43:26;;;;;;;;;;;;;;;16.20;60.64;97625.44;5109963;27;20010;-54
2023/05/22 03:45:54;;;;;;;;;;;;;;;16.19;60.70;97624.63;5093533;28;19956;-53
2023/05/22 03:48:22;;;;;;;;;;;;;;;16.21;60.59;97627.00;5090032;28;19935;-57
2023/05/22 03:50:52;;;;;;;;;;;;;;;16.18;60.66;97628.50;5092283;28;20372;-53
2023/05/22 03:53:20;;;;;;;;;;;;;;;16.24;60.48;97627.09;5126546;27;19938;-54
2023/05/22 03:55:48;;;;;;;;;;;;;;;16.24;60.61;97629.03;5091490;28;20341;-54
2023/05/22 03:58:16;;;;;;;;;;;;;;;16.18;60.72;97628.50;5099901;28;20021;-53
2023/05/22 04:00:45;;;;;;;;;;;;;;;16.16;60.90;97625.31;5096565;28;20019;-54
2023/05/22 04:03:18;;;;;;;;;;;;;;;16.15;60.98;97633.91;5092130;28;19987;-54
2023/05/22 04:05:46;;;;;;;;;;;;;;;16.11;61.20;97633.03;5089880;28;20351;-54
2023/05/22 04:08:15;;;;;;;;;;;;;;;16.07;61.29;97630.19;5090076;28;20352;-54
2023/05/22 04:10:45;;;;;;;;;;;;;;;16.04;61.12;97628.16;5090821;28;19938;-54
2023/05/22 04:13:13;;;;;;;;;;;;;;;16.05;61.59;97643.47;5079311;28;19935;-53
2023/05/22 04:15:42;;;;;;;;;;;;;;;16.04;61.50;97643.81;5080116;28;19997;-54
2023/05/22 04:18:10;;;;;;;;;;;;;;;16.07;61.54;97646.63;5098601;28;20376;-54
2023/05/22 04:20:39;;;;;;;;;;;;;;;16.16;61.33;97641.78;5132436;27;19931;-54
2023/05/22 04:23:07;;;;;;;;;;;;;;;16.17;61.22;97648.03;5116336;27;19959;-53
2023/05/22 04:25:36;;;;;;;;;;;;;;;16.18;61.30;97653.16;5084289;28;19946;-54
2023/05/22 04:28:04;;;;;;;;;;;;;;;16.23;61.37;97652.91;5084795;28;19931;-54
2023/05/22 04:30:32;;;;;;;;;;;;;;;16.21;61.46;97649.72;5083489;28;19973;-55
2023/05/22 04:33:01;;;;;;;;;;;;;;;16.26;61.32;97650.63;5132523;27;19930;-54
2023/05/22 04:35:30;;;;;;;;;;;;;;;16.31;61.28;97650.34;5086127;28;19947;-53
2023/05/22 04:38:00;;;;;;;;;;;;;;;16.38;61.26;97656.00;5090249;28;19943;-53
2023/05/22 04:40:29;;;;;;;;;;;;;;;16.43;61.10;97645.56;5092884;28;19966;-54
2023/05/22 04:42:59;;;;;;;;;;;;;;;16.42;61.04;97652.19;5123821;27;19930;-56
2023/05/22 04:45:27;;;;;;;;;;;;;;;16.47;60.72;97651.13;5090122;28;20387;-53
2023/05/22 04:47:58;;;;;;;;;;;;;;;16.49;60.56;97654.28;5085511;28;19964;-54
2023/05/22 04:50:29;;;;;;;;;;;;;;;16.54;60.39;97651.28;5086609;28;19930;-55
2023/05/22 04:52:58;;;;;;;;;;;;;;;16.61;60.33;97654.19;5088468;28;19930;-56
2023/05/22 04:55:26;;;;;;;;;;;;;;;16.65;60.29;97663.28;5078620;28;20004;-53
2023/05/22 04:57:55;;;;;;;;;;;;;;;16.73;60.04;97651.38;5112098;27;20014;-54
2023/05/22 05:00:27;;;;;;;;;;;;;;;16.76;59.94;97664.34;5085216;28;19942;-55
2023/05/22 05:02:59;;;;;;;;;;;;;;;16.77;60.02;97654.97;5077093;28;19931;-56
2023/05/22 05:05:27;;;;;;;;;;;;;;;16.83;60.00;97652.75;5112136;27;19934;-55
2023/05/22 05:07:55;;;;;;;;;;;;;;;16.87;60.23;97647.34;5085402;28;20458;-55
2023/05/22 05:10:23;;;;;;;;;;;;;;;16.91;59.97;97656.44;5094618;28;19930;-55
2023/05/22 05:12:52;;;;;;;;;;;;;;;16.98;60.38;97651.09;5093251;28;19938;-54
2023/05/22 05:15:21;;;;;;;;;;;;;;;17.02;59.52;97651.97;5099301;28;20035;-55
2023/05/22 05:17:51;;;;;;;;;;;;;;;17.11;59.25;97658.06;5087830;28;19943;-57
2023/05/22 05:20:19;;;;;;;;;;;;;;;17.20;59.13;97653.13;5082556;28;19957;-56
2023/05/22 05:22:47;;;;;;;;;;;;;;;17.29;58.69;97645.47;5089948;28;19954;-54
2023/05/22 05:25:15;;;;;;;;;;;;;;;17.36;58.53;97652.28;5104593;28;19947;-54
2023/05/22 05:27:43;;;;;;;;;;;;;;;17.40;58.59;97647.66;5090189;28;19930;-54
2023/05/22 05:30:12;;;;;;;;;;;;;;;17.46;58.46;97654.44;5097272;28;20391;-58
2023/05/22 05:32:57;;;;;;;;;;;;;;;17.52;58.56;97658.47;5091667;28;19941;-54
2023/05/22 05:35:33;;;;;;;;;;;;;;;17.56;58.14;97653.84;5092017;28;19955;-55
2023/05/22 05:38:12;;;;;;;;;;;;;;;17.55;58.02;97663.25;5083494;28;20037;-56
2023/05/22 05:40:42;;;;;;;;;;;;;;;17.61;57.91;97653.56;5101700;28;20279;-54
2023/05/22 05:43:13;;;;;;;;;;;;;;;17.72;58.23;97657.31;5079976;28;19978;-55
2023/05/22 05:45:42;;;;;;;;;;;;;;;17.78;58.05;97652.31;5094922;28;20261;-54
2023/05/22 05:48:11;;;;;;;;;;;;;;;17.90;57.58;97648.63;5092630;28;19939;-55
2023/05/22 05:50:43;;;;;;;;;;;;;;;17.97;57.39;97649.53;5094638;28;19938;-56
2023/05/22 05:53:11;;;;;;;;;;;;;;;17.99;56.81;97651.91;5088549;28;19950;-54
2023/05/22 05:55:42;;;;;;;;;;;;;;;18.05;56.64;97667.72;5090257;28;20599;-54
2023/05/22 05:58:10;;;;;;;;;;;;;;;18.17;56.63;97664.03;5096173;28;19942;-54
2023/05/22 06:01:02;;;;;;;;;;;;;;;18.27;56.70;97657.91;5087025;28;19924;-55
2023/05/22 06:03:32;;;;;;;;;;;;;;;18.38;56.25;97662.78;5094644;28;19940;-54
2023/05/22 06:06:10;;;;;;;;;;;;;;;18.43;55.70;97663.28;5118402;27;20017;-54
2023/05/22 06:09:01;;;;;;;;;;;;;;;18.51;56.52;97667.72;5087205;28;20423;-54
2023/05/22 06:11:32;;;;;;;;;;;;;;;18.63;55.89;97669.47;5094756;28;19921;-54
2023/05/22 06:14:02;;;;;;;;;;;;;;;18.76;55.65;97661.84;5115796;27;20299;-55
2023/05/22 06:16:31;;;;;;;;;;;;;;;18.85;55.27;97667.84;5119942;27;19951;-54
2023/05/22 06:19:03;;;;;;;;;;;;;;;18.91;54.79;97663.63;5121484;27;19930;-54
2023/05/22 06:21:31;;;;;;;;;;;;;;;19.01;55.03;97667.66;5100429;28;20310;-57
2023/05/22 06:23:59;;;;;;;;;;;;;;;19.10;54.59;97668.97;5117779;27;20415;-57
2023/05/22 06:26:28;;;;;;;;;;;;;;;19.25;54.33;97663.66;5100976;28;20251;-54
2023/05/22 06:28:56;;;;;;;;;;;;;;;19.34;54.10;97669.69;5123481;27;19947;-55
2023/05/22 06:31:25;;;;;;;;;;;;;;;19.41;53.55;97666.22;5092637;28;19984;-54
2023/05/22 06:33:55;;;;;;;;;;;;;;;19.43;53.35;97667.41;5086133;28;19942;-54
2023/05/22 06:36:26;;;;;;;;;;;;;;;19.61;52.53;97662.97;5085986;28;19947;-54
2023/05/22 06:38:55;;;;;;;;;;;;;;;19.61;52.77;97656.66;5106288;28;19934;-58
2023/05/22 06:41:51;;;;;;;;;;;;;;;19.72;52.89;97663.06;5053806;28;19935;-55
2023/05/22 06:44:20;;;;;;;;;;;;;;;19.81;52.13;97652.50;5091918;28;20402;-56
2023/05/22 06:46:54;;;;;;;;;;;;;;;19.95;51.87;97653.84;5120258;27;20028;-54
2023/05/22 06:49:25;;;;;;;;;;;;;;;20.04;51.82;97657.88;5102345;28;19935;-54
2023/05/22 06:51:56;;;;;;;;;;;;;;;20.17;51.83;97658.38;5087499;28;19931;-56
2023/05/22 06:54:27;;;;;;;;;;;;;;;20.27;52.14;97660.44;5081295;28;19941;-54
2023/05/22 06:56:56;;;;;;;;;;;;;;;20.38;52.07;97660.53;5091025;28;19947;-57
2023/05/22 06:59:27;;;;;;;;;;;;;;;20.46;51.96;97666.91;5089786;28;19965;-56
2023/05/22 07:02:04;;;;;;;;;;;;;;;20.53;50.98;97664.22;5095206;28;19941;-54
2023/05/22 07:04:55;;;;;;;;;;;;;;;20.56;50.97;97666.19;5091523;28;20020;-55
2023/05/22 07:07:32;;;;;;;;;;;;;;;20.69;50.74;97669.47;5087643;28;19930;-55
2023/05/22 07:10:00;;;;;;;;;;;;;;;20.81;50.86;97671.91;5089729;28;19920;-55
2023/05/22 07:12:29;;;;;;;;;;;;;;;20.90;50.63;97664.88;5110004;27;19932;-56
2023/05/22 07:14:58;;;;;;;;;;;;;;;20.99;50.27;97666.50;5119423;27;19935;-54
2023/05/22 07:17:28;;;;;;;;;;;;;;;21.07;50.19;97665.34;5094167;28;20240;-56
2023/05/22 07:19:57;;;;;;;;;;;;;;;21.17;49.88;97665.41;5099446;28;19940;-55
2023/05/22 07:22:25;;;;;;;;;;;;;;;21.27;50.10;97660.34;5084704;28;19962;-56
2023/05/22 07:24:56;;;;;;;;;;;;;;;21.38;50.20;97656.47;5123850;27;20016;-55
2023/05/22 07:27:29;;;;;;;;;;;;;;;21.51;49.62;97664.41;5104065;28;19934;-55
2023/05/22 07:29:58;;;;;;;;;;;;;;;21.57;48.48;97665.59;5123471;27;19965;-55
2023/05/22 07:32:25;;;;;;;;;;;;;;;21.67;48.26;97662.06;5089711;28;19935;-55
2023/05/22 07:34:55;;;;;;;;;;;;;;;21.88;48.57;97661.34;5105066;28;19984;-56
2023/05/22 07:37:24;;;;;;;;;;;;;;;21.98;47.48;97655.81;5109970;27;19942;-56
2023/05/22 07:39:51;;;;;;;;;;;;;;;22.07;45.67;97658.22;5094204;28;19930;-55
2023/05/22 07:42:21;;;;;;;;;;;;;;;22.14;44.52;97651.94;5119662;27;20029;-55
2023/05/22 07:44:54;;;;;;;;;;;;;;;22.23;45.07;97650.34;5080198;28;19941;-55
2023/05/22 07:47:23;;;;;;;;;;;;;;;22.35;44.18;97651.94;5085812;28;19934;-55
2023/05/22 07:49:51;;;;;;;;;;;;;;;22.41;44.04;97646.78;5105757;28;19927;-55
2023/05/22 07:52:20;;;;;;;;;;;;;;;22.48;43.03;97650.38;5087512;28;19963;-55
2023/05/22 07:54:50;;;;;;;;;;;;;;;22.67;43.49;97651.13;5090315;28;19974;-55
2023/05/22 07:57:21;;;;;;;;;;;;;;;22.84;42.24;97655.84;5100311;28;19924;-55
2023/05/22 07:59:51;;;;;;;;;;;;;;;22.94;42.36;97648.72;5124595;27;20361;-55
2023/05/22 08:02:19;;;;;;;;;;;;;;;23.03;42.62;97649.13;5092168;28;20121;-57
2023/05/22 08:04:49;;;;;;;;;;;;;;;23.11;41.56;97647.09;5090514;28;20339;-55
2023/05/22 08:07:18;;;;;;;;;;;;;;;23.07;42.32;97651.88;5081308;28;20022;-54
2023/05/22 08:09:46;;;;;;;;;;;;;;;23.25;41.71;97656.16;5105619;28;19958;-55
2023/05/22 08:12:15;;;;;;;;;;;;;;;23.22;42.99;97654.22;5092420;28;19941;-55
2023/05/22 08:14:44;;;;;;;;;;;;;;;23.23;42.49;97650.25;5096886;28;19959;-55
2023/05/22 08:17:13;;;;;;;;;;;;;;;23.30;41.70;97646.66;5087915;28;19924;-55
2023/05/22 08:19:43;;;;;;;;;;;;;;;23.40;42.05;97643.03;5085222;28;19934;-56
2023/05/22 08:22:12;;;;;;;;;;;;;;;23.42;42.13;97646.19;5084226;28;20532;-55
2023/05/22 08:24:39;;;;;;;;;;;;;;;23.41;41.08;97650.16;5100277;28;19957;-55
2023/05/22 08:27:08;;;;;;;;;;;;;;;23.47;41.42;97658.84;5093596;28;20295;-55
2023/05/22 08:29:36;;;;;;;;;;;;;;;23.55;40.78;97652.09;5091394;28;19957;-57
2023/05/22 08:32:05;;;;;;;;;;;;;;;23.67;40.16;97645.31;5081710;28;19956;-56
2023/05/22 08:34:34;;;;;;;;;;;;;;;23.75;40.48;97650.41;5078417;28;20412;-56
2023/05/22 08:37:03;;;;;;;;;;;;;;;23.87;40.39;97657.50;5085222;28;19920;-56
2023/05/22 08:39:31;;;;;;;;;;;;;;;23.90;39.97;97651.13;5086025;28;20358;-56
2023/05/22 08:41:59;;;;;;;;;;;;;;;23.97;39.58;97648.31;5089584;28;19924;-57
2023/05/22 08:44:27;;;;;;;;;;;;;;;24.12;39.05;97648.19;5087933;28;19943;-56
2023/05/22 08:46:55;;;;;;;;;;;;;;;24.13;38.94;97638.66;5086631;28;19920;-56
2023/05/22 08:49:24;;;;;;;;;;;;;;;24.23;39.26;97638.59;5088364;28;19924;-56
2023/05/22 08:51:53;;;;;;;;;;;;;;;24.25;39.66;97639.00;5081641;28;19934;-55
2023/05/22 08:54:21;;;;;;;;;;;;;;;24.37;38.53;97628.63;5078930;28;20254;-56
2023/05/22 08:56:49;;;;;;;;;;;;;;;24.40;38.25;97636.94;5075234;28;20377;-58
2023/05/22 08:59:23;;;;;;;;;;;;;;;24.44;38.02;97631.31;5081405;28;19955;-57
2023/05/22 09:01:52;;;;;;;;;;;;;;;24.51;37.90;97634.84;5083535;28;19931;-57
2023/05/22 09:04:22;;;;;;;;;;;;;;;24.55;37.14;97632.81;5086090;28;19924;-58
2023/05/22 09:06:51;;;;;;;;;;;;;;;24.59;36.94;97635.56;5097562;28;19950;-56
2023/05/22 09:09:19;;;;;;;;;;;;;;;24.55;37.85;97624.50;5088630;28;19955;-57
2023/05/22 09:11:47;;;;;;;;;;;;;;;24.61;37.38;97629.56;5070842;28;19920;-56
2023/05/22 09:14:15;;;;;;;;;;;;;;;24.65;37.11;97630.34;5089262;28;19920;-56
2023/05/22 09:16:44;;;;;;;;;;;;;;;24.69;36.42;97631.09;5080295;28;19932;-56
2023/05/22 09:19:11;;;;;;;;;;;;;;;24.70;37.10;97618.78;5089679;28;19920;-58
2023/05/22 09:21:39;;;;;;;;;;;;;;;24.76;37.61;97625.47;5085494;28;19928;-57
2023/05/22 09:24:09;;;;;;;;;;;;;;;24.75;36.83;97616.34;5079236;28;19935;-65
2023/05/22 09:26:38;;;;;;;;;;;;;;;24.93;36.11;97615.34;5080650;28;19920;-56
2023/05/22 09:29:07;;;;;;;;;;;;;;;24.96;36.90;97618.09;5076857;28;20093;-56
2023/05/22 09:31:38;;;;;;;;;;;;;;;24.90;36.08;97617.00;5081160;28;19942;-54
2023/05/22 09:34:06;;;;;;;;;;;;;;;25.05;36.56;97623.97;5079820;28;19924;-54
2023/05/22 09:36:35;;;;;;;;;;;;;;;24.97;36.24;97628.00;5081364;28;20316;-55
2023/05/22 09:39:03;;;;;;;;;;;;;;;24.88;36.02;97621.41;5080564;28;19921;-55
2023/05/22 09:41:35;;;;;;;;;;;;;;;24.96;35.61;97618.09;5083049;28;20015;-55
2023/05/22 09:44:07;;;;;;;;;;;;;;;24.97;36.08;97611.34;5084358;28;19965;-60
2023/05/22 09:46:38;;;;;;;;;;;;;;;24.96;35.88;97612.56;5089478;28;19973;-54
2023/05/22 09:49:07;;;;;;;;;;;;;;;25.03;35.50;97612.47;5064596;28;19970;-64
2023/05/22 09:51:35;;;;;;;;;;;;;;;25.05;35.73;97610.06;5073047;28;19955;-56
2023/05/22 09:54:05;;;;;;;;;;;;;;;25.19;35.44;97605.56;5074509;28;19999;-56
2023/05/22 09:56:33;;;;;;;;;;;;;;;25.17;34.19;97605.19;5086224;28;20344;-56
2023/05/22 09:59:08;;;;;;;;;;;;;;;25.08;34.62;97606.47;5089832;28;20343;-59
2023/05/22 10:01:36;;;;;;;;;;;;;;;25.14;35.73;97606.84;5094732;28;19954;-56
2023/05/22 10:04:04;;;;;;;;;;;;;;;25.41;33.65;97603.31;5079143;28;19941;-54
2023/05/22 10:06:35;;;;;;;;;;;;;;;25.45;34.36;97599.28;5061408;28;20272;-55
2023/05/22 10:09:05;;;;;;;;;;;;;;;25.48;33.82;97597.66;5093312;28;19931;-56
2023/05/22 10:11:32;;;;;;;;;;;;;;;25.51;33.97;97596.81;5084247;28;19942;-55
2023/05/22 10:14:00;;;;;;;;;;;;;;;25.58;34.14;97591.94;5094897;28;19942;-55
2023/05/22 10:16:30;;;;;;;;;;;;;;;25.64;34.49;97594.25;5089077;28;19996;-57
2023/05/22 10:18:57;;;;;;;;;;;;;;;25.58;33.81;97583.59;5087132;28;20281;-56
2023/05/22 10:21:25;;;;;;;;;;;;;;;25.57;33.89;97579.25;5086610;28;19939;-61
2023/05/22 10:23:53;;;;;;;;;;;;;;;25.61;33.81;97587.53;5083441;28;20434;-56
2023/05/22 10:26:21;;;;;;;;;;;;;;;25.59;33.04;97585.19;5078736;28;19935;-56
2023/05/22 10:29:00;;;;;;;;;;;;;;;25.61;33.49;97576.41;5091938;28;19930;-56
2023/05/22 10:31:32;;;;;;;;;;;;;;;25.57;33.36;97573.69;5090582;28;19938;-56
2023/05/22 10:34:18;;;;;;;;;;;;;;;25.66;32.78;97575.16;5065650;28;20261;-55
2023/05/22 10:36:51;;;;;;;;;;;;;;;25.71;32.53;97581.03;5081351;28;19931;-56
2023/05/22 10:39:24;;;;;;;;;;;;;;;25.66;32.54;97583.50;5081919;28;20001;-54
2023/05/22 10:41:54;;;;;;;;;;;;;;;25.67;32.51;97579.50;5088195;28;20363;-57
2023/05/22 10:44:22;;;;;;;;;;;;;;;25.69;33.40;97579.88;5097769;28;19938;-57
2023/05/22 10:46:51;;;;;;;;;;;;;;;25.87;32.37;97574.84;5090782;28;19942;-56
2023/05/22 10:49:23;;;;;;;;;;;;;;;25.89;32.65;97578.03;5093102;28;19981;-56
2023/05/22 10:51:55;;;;;;;;;;;;;;;25.82;32.76;97578.13;5094726;28;19987;-58
2023/05/22 10:54:36;;;;;;;;;;;;;;;25.87;33.23;97569.28;5089690;28;19935;-56
2023/05/22 10:57:09;;;;;;;;;;;;;;;25.91;32.23;97572.03;5092619;28;20029;-56
2023/05/22 10:59:39;;;;;;;;;;;;;;;26.01;32.05;97562.72;5092910;28;20296;-56
2023/05/22 11:02:14;;;;;;;;;;;;;;;26.00;32.31;97566.72;5089849;28;19945;-57
2023/05/22 11:04:42;;;;;;;;;;;;;;;26.09;31.69;97553.81;5080370;28;19969;-57
2023/05/22 11:07:12;;;;;;;;;;;;;;;26.03;31.79;97555.50;5092411;28;19935;-56
2023/05/22 11:09:41;;;;;;;;;;;;;;;26.08;33.04;97559.81;5086237;28;20079;-55
2023/05/22 11:12:15;;;;;;;;;;;;;;;26.11;32.58;97551.41;5096673;28;19995;-57
2023/05/22 11:14:43;;;;;;;;;;;;;;;26.36;30.59;97555.75;5097372;28;20387;-56
2023/05/22 11:17:13;;;;;;;;;;;;;;;26.26;31.01;97556.72;5085095;28;20021;-56
2023/05/22 11:19:41;;;;;;;;;;;;;;;26.37;29.64;97557.34;5091081;28;20442;-56
2023/05/22 11:22:09;;;;;;;;;;;;;;;26.44;29.62;97559.25;5088362;28;19931;-56
2023/05/22 11:24:37;;;;;;;;;;;;;;;26.48;29.29;97557.97;5097168;28;19935;-64
2023/05/22 11:27:05;;;;;;;;;;;;;;;26.58;29.82;97558.97;5091079;28;19930;-55
2023/05/22 11:29:33;;;;;;;;;;;;;;;26.59;29.39;97555.00;5100776;28;19935;-56
2023/05/22 11:32:01;;;;;;;;;;;;;;;26.69;29.61;97551.22;5100758;28;19984;-57
2023/05/22 11:34:30;;;;;;;;;;;;;;;26.64;29.39;97551.72;5092896;28;19977;-56
2023/05/22 11:36:59;;;;;;;;;;;;;;;26.68;31.38;97540.47;5134412;27;19939;-56
2023/05/22 11:39:28;;;;;;;;;;;;;;;26.78;29.95;97548.63;5086257;28;19946;-55
2023/05/22 11:41:55;;;;;;;;;;;;;;;26.78;29.17;97542.28;5093932;28;19941;-56
2023/05/22 11:44:23;;;;;;;;;;;;;;;26.71;30.58;97537.63;5091835;28;19934;-56
2023/05/22 11:46:51;;;;;;;;;;;;;;;26.76;29.54;97539.13;5094127;28;19935;-56
2023/05/22 11:49:22;;;;;;;;;;;;;;;26.83;27.85;97533.41;5090015;28;20346;-56
2023/05/22 11:51:52;;;;;;;;;;;;;;;26.81;27.46;97531.06;5096061;28;19942;-57
2023/05/22 11:54:20;;;;;;;;;;;;;;;26.83;26.73;97534.19;5088992;28;19979;-56
2023/05/22 11:56:51;;;;;;;;;;;;;;;26.78;26.85;97525.56;5089704;28;19936;-56
2023/05/22 11:59:20;;;;;;;;;;;;;;;26.59;27.05;97527.91;5089353;28;19946;-58
2023/05/22 12:01:49;;;;;;;;;;;;;;;26.49;28.35;97531.69;5098671;28;19983;-56
2023/05/22 12:04:16;;;;;;;;;;;;;;;26.67;28.12;97524.97;5093505;28;20490;-60
2023/05/22 12:06:44;;;;;;;;;;;;;;;26.68;28.73;97524.53;5097476;28;19930;-58
2023/05/22 12:09:13;;;;;;;;;;;;;;;26.61;28.95;97519.91;5096916;28;19942;-57
2023/05/22 12:11:45;;;;;;;;;;;;;;;26.83;29.14;97522.25;5130319;27;20356;-56
2023/05/22 12:14:13;;;;;;;;;;;;;;;26.91;27.90;97523.72;5092451;28;19934;-57
2023/05/22 12:16:41;;;;;;;;;;;;;;;27.05;28.06;97517.81;5096894;28;19946;-56
2023/05/22 12:19:09;;;;;;;;;;;;;;;27.24;29.00;97521.06;5092385;28;20395;-57
2023/05/22 12:21:38;;;;;;;;;;;;;;;27.30;28.52;97510.94;5099374;28;19930;-56
2023/05/22 12:24:06;;;;;;;;;;;;;;;27.39;27.63;97520.31;5101502;28;19958;-58
2023/05/22 12:26:35;;;;;;;;;;;;;;;27.36;27.13;97520.38;5094333;28;20952;-57
2023/05/22 12:29:03;;;;;;;;;;;;;;;27.34;27.53;97520.03;5094413;28;19984;-56
2023/05/22 12:31:35;;;;;;;;;;;;;;;27.35;28.26;97519.59;5086240;28;19942;-56
2023/05/22 12:34:03;;;;;;;;;;;;;;;27.38;27.74;97512.38;5086748;28;19943;-56
2023/05/22 12:36:32;;;;;;;;;;;;;;;27.41;27.67;97517.84;5085125;28;20016;-56
2023/05/22 12:39:06;;;;;;;;;;;;;;;27.49;26.54;97512.91;5082835;28;19969;-57
2023/05/22 12:41:36;;;;;;;;;;;;;;;27.56;26.50;97509.94;5114022;27;20017;-57
2023/05/22 12:44:04;;;;;;;;;;;;;;;27.56;26.71;97509.94;5082795;28;19989;-56
2023/05/22 12:46:32;;;;;;;;;;;;;;;27.54;27.68;97508.81;5085820;28;19930;-56
2023/05/22 12:48:59;;;;;;;;;;;;;;;27.64;27.00;97502.97;5081958;28;19934;-58
2023/05/22 12:51:28;;;;;;;;;;;;;;;27.56;26.35;97500.81;5085059;28;19938;-59
2023/05/22 12:53:56;;;;;;;;;;;;;;;27.38;26.63;97504.00;5083776;28;19935;-57
2023/05/22 12:56:24;;;;;;;;;;;;;;;27.35;27.07;97500.06;5074079;28;19942;-59
2023/05/22 12:58:53;;;;;;;;;;;;;;;27.47;27.04;97495.81;5082901;28;20352;-56
2023/05/22 13:01:23;;;;;;;;;;;;;;;27.51;27.53;97502.09;5096254;28;19938;-56